sensor_id;sensor_type;location;lat;lon;timestamp;P1;durP1;ratioP1;P2;durP2;ratioP2
813;SDS011;389;48.710;9.392;2022-07-29T00:00:41;15.33;;;13.73;;
813;SDS011;389;48.710;9.392;2022-07-29T00:03:09;15.57;;;13.63;;
813;SDS011;389;48.710;9.392;2022-07-29T00:05:35;16.30;;;14.20;;
813;SDS011;389;48.710;9.392;2022-07-29T00:08:02;15.13;;;13.50;;
813;SDS011;389;48.710;9.392;2022-07-29T00:10:29;14.13;;;12.80;;
813;SDS011;389;48.710;9.392;2022-07-29T00:12:54;14.53;;;13.03;;
813;SDS011;389;48.710;9.392;2022-07-29T00:15:20;15.53;;;13.20;;
813;SDS011;389;48.710;9.392;2022-07-29T00:17:45;15.17;;;13.40;;
813;SDS011;389;48.710;9.392;2022-07-29T00:20:11;16.77;;;13.90;;
813;SDS011;389;48.710;9.392;2022-07-29T00:22:37;15.33;;;13.73;;
813;SDS011;389;48.710;9.392;2022-07-29T00:25:04;15.30;;;13.80;;
813;SDS011;389;48.710;9.392;2022-07-29T00:27:30;16.10;;;14.40;;
813;SDS011;389;48.710;9.392;2022-07-29T00:29:56;19.30;;;14.10;;
813;SDS011;389;48.710;9.392;2022-07-29T00:32:21;15.47;;;13.87;;
813;SDS011;389;48.710;9.392;2022-07-29T00:34:47;16.37;;;14.77;;
813;SDS011;389;48.710;9.392;2022-07-29T00:37:31;15.77;;;14.17;;
813;SDS011;389;48.710;9.392;2022-07-29T00:39:56;16.40;;;14.70;;
813;SDS011;389;48.710;9.392;2022-07-29T00:42:22;16.33;;;14.63;;
813;SDS011;389;48.710;9.392;2022-07-29T00:44:48;20.20;;;14.30;;
813;SDS011;389;48.710;9.392;2022-07-29T00:47:14;16.83;;;15.03;;
813;SDS011;389;48.710;9.392;2022-07-29T00:49:40;18.93;;;16.00;;
813;SDS011;389;48.710;9.392;2022-07-29T00:52:07;19.00;;;15.03;;
813;SDS011;389;48.710;9.392;2022-07-29T00:54:34;18.03;;;14.77;;
813;SDS011;389;48.710;9.392;2022-07-29T00:57:00;16.30;;;14.57;;
813;SDS011;389;48.710;9.392;2022-07-29T00:59:26;15.70;;;13.97;;
813;SDS011;389;48.710;9.392;2022-07-29T01:01:52;16.50;;;14.80;;
813;SDS011;389;48.710;9.392;2022-07-29T01:04:19;16.70;;;14.60;;
813;SDS011;389;48.710;9.392;2022-07-29T01:06:45;21.83;;;15.20;;
813;SDS011;389;48.710;9.392;2022-07-29T01:09:12;17.03;;;14.10;;
813;SDS011;389;48.710;9.392;2022-07-29T01:11:39;17.20;;;15.40;;
813;SDS011;389;48.710;9.392;2022-07-29T01:14:05;17.47;;;15.73;;
813;SDS011;389;48.710;9.392;2022-07-29T01:16:32;17.43;;;15.60;;
813;SDS011;389;48.710;9.392;2022-07-29T01:19:12;17.93;;;16.03;;
813;SDS011;389;48.710;9.392;2022-07-29T01:21:59;16.80;;;15.00;;
813;SDS011;389;48.710;9.392;2022-07-29T01:27:09;17.87;;;16.10;;
813;SDS011;389;48.710;9.392;2022-07-29T01:30:02;20.03;;;16.63;;
813;SDS011;389;48.710;9.392;2022-07-29T01:32:29;18.80;;;16.70;;
813;SDS011;389;48.710;9.392;2022-07-29T01:38:05;20.00;;;16.97;;
813;SDS011;389;48.710;9.392;2022-07-29T01:40:52;20.03;;;17.57;;
813;SDS011;389;48.710;9.392;2022-07-29T01:43:38;20.53;;;18.27;;
813;SDS011;389;48.710;9.392;2022-07-29T01:46:09;24.80;;;18.50;;
813;SDS011;389;48.710;9.392;2022-07-29T01:48:44;19.50;;;17.40;;
813;SDS011;389;48.710;9.392;2022-07-29T01:53:47;28.00;;;18.40;;
813;SDS011;389;48.710;9.392;2022-07-29T01:56:24;21.20;;;18.80;;
813;SDS011;389;48.710;9.392;2022-07-29T01:58:54;21.47;;;18.50;;
813;SDS011;389;48.710;9.392;2022-07-29T02:01:21;23.57;;;19.40;;
813;SDS011;389;48.710;9.392;2022-07-29T02:03:49;25.63;;;19.63;;
813;SDS011;389;48.710;9.392;2022-07-29T02:06:18;23.47;;;19.77;;
813;SDS011;389;48.710;9.392;2022-07-29T02:08:46;29.70;;;19.93;;
813;SDS011;389;48.710;9.392;2022-07-29T02:11:13;23.90;;;19.57;;
813;SDS011;389;48.710;9.392;2022-07-29T02:13:39;24.60;;;19.87;;
813;SDS011;389;48.710;9.392;2022-07-29T02:16:06;28.30;;;20.10;;
813;SDS011;389;48.710;9.392;2022-07-29T02:18:33;26.90;;;20.00;;
813;SDS011;389;48.710;9.392;2022-07-29T02:21:02;27.63;;;20.20;;
813;SDS011;389;48.710;9.392;2022-07-29T02:23:28;24.03;;;20.70;;
813;SDS011;389;48.710;9.392;2022-07-29T02:25:57;24.67;;;20.10;;
813;SDS011;389;48.710;9.392;2022-07-29T02:28:25;25.23;;;20.63;;
813;SDS011;389;48.710;9.392;2022-07-29T02:30:52;24.07;;;19.60;;
813;SDS011;389;48.710;9.392;2022-07-29T02:33:20;29.27;;;21.77;;
813;SDS011;389;48.710;9.392;2022-07-29T02:35:48;27.57;;;21.07;;
813;SDS011;389;48.710;9.392;2022-07-29T02:38:15;27.73;;;19.80;;
813;SDS011;389;48.710;9.392;2022-07-29T02:41:01;28.80;;;20.83;;
813;SDS011;389;48.710;9.392;2022-07-29T02:43:31;33.20;;;21.50;;
813;SDS011;389;48.710;9.392;2022-07-29T02:45:57;27.37;;;21.60;;
813;SDS011;389;48.710;9.392;2022-07-29T02:48:27;26.23;;;20.90;;
813;SDS011;389;48.710;9.392;2022-07-29T02:51:04;28.57;;;21.63;;
813;SDS011;389;48.710;9.392;2022-07-29T02:53:38;30.47;;;21.77;;
813;SDS011;389;48.710;9.392;2022-07-29T02:56:16;30.77;;;21.40;;
813;SDS011;389;48.710;9.392;2022-07-29T02:58:47;27.67;;;22.57;;
813;SDS011;389;48.710;9.392;2022-07-29T03:01:25;28.83;;;21.77;;
813;SDS011;389;48.710;9.392;2022-07-29T03:03:54;29.83;;;19.90;;
813;SDS011;389;48.710;9.392;2022-07-29T03:06:21;25.47;;;20.53;;
813;SDS011;389;48.710;9.392;2022-07-29T03:08:50;26.07;;;21.27;;
813;SDS011;389;48.710;9.392;2022-07-29T03:11:17;25.03;;;21.10;;
813;SDS011;389;48.710;9.392;2022-07-29T03:13:43;28.60;;;21.67;;
813;SDS011;389;48.710;9.392;2022-07-29T03:16:10;27.80;;;21.37;;
813;SDS011;389;48.710;9.392;2022-07-29T03:18:37;32.27;;;20.60;;
813;SDS011;389;48.710;9.392;2022-07-29T03:21:03;29.57;;;22.27;;
813;SDS011;389;48.710;9.392;2022-07-29T03:23:29;31.70;;;20.93;;
813;SDS011;389;48.710;9.392;2022-07-29T03:25:55;32.20;;;21.30;;
813;SDS011;389;48.710;9.392;2022-07-29T03:28:21;25.70;;;20.60;;
813;SDS011;389;48.710;9.392;2022-07-29T03:30:47;27.60;;;20.60;;
813;SDS011;389;48.710;9.392;2022-07-29T03:33:14;29.00;;;21.27;;
813;SDS011;389;48.710;9.392;2022-07-29T03:35:39;28.80;;;21.90;;
813;SDS011;389;48.710;9.392;2022-07-29T03:38:05;27.00;;;21.40;;
813;SDS011;389;48.710;9.392;2022-07-29T03:40:32;28.70;;;21.00;;
813;SDS011;389;48.710;9.392;2022-07-29T03:43:00;35.83;;;21.30;;
813;SDS011;389;48.710;9.392;2022-07-29T03:45:27;26.10;;;21.07;;
813;SDS011;389;48.710;9.392;2022-07-29T03:47:57;29.33;;;21.57;;
813;SDS011;389;48.710;9.392;2022-07-29T03:50:32;31.10;;;23.33;;
813;SDS011;389;48.710;9.392;2022-07-29T03:52:58;35.57;;;29.00;;
813;SDS011;389;48.710;9.392;2022-07-29T03:55:25;32.07;;;25.37;;
813;SDS011;389;48.710;9.392;2022-07-29T03:57:53;27.67;;;22.20;;
813;SDS011;389;48.710;9.392;2022-07-29T04:00:21;29.03;;;21.90;;
813;SDS011;389;48.710;9.392;2022-07-29T04:02:49;28.90;;;21.60;;
813;SDS011;389;48.710;9.392;2022-07-29T04:05:15;32.00;;;22.83;;
813;SDS011;389;48.710;9.392;2022-07-29T04:07:44;31.93;;;23.37;;
813;SDS011;389;48.710;9.392;2022-07-29T04:10:11;30.20;;;22.83;;
813;SDS011;389;48.710;9.392;2022-07-29T04:12:37;29.23;;;22.37;;
813;SDS011;389;48.710;9.392;2022-07-29T04:15:03;28.20;;;21.93;;
813;SDS011;389;48.710;9.392;2022-07-29T04:17:29;29.10;;;21.27;;
813;SDS011;389;48.710;9.392;2022-07-29T04:19:55;28.40;;;21.80;;
813;SDS011;389;48.710;9.392;2022-07-29T04:22:20;28.70;;;21.47;;
813;SDS011;389;48.710;9.392;2022-07-29T04:24:46;27.47;;;21.93;;
813;SDS011;389;48.710;9.392;2022-07-29T04:27:12;31.80;;;22.60;;
813;SDS011;389;48.710;9.392;2022-07-29T04:29:37;28.90;;;21.87;;
813;SDS011;389;48.710;9.392;2022-07-29T04:32:03;30.80;;;22.50;;
813;SDS011;389;48.710;9.392;2022-07-29T04:34:29;26.73;;;20.73;;
813;SDS011;389;48.710;9.392;2022-07-29T04:36:54;30.73;;;21.93;;
813;SDS011;389;48.710;9.392;2022-07-29T04:39:20;29.20;;;22.50;;
813;SDS011;389;48.710;9.392;2022-07-29T04:41:46;27.10;;;22.37;;
813;SDS011;389;48.710;9.392;2022-07-29T04:44:12;28.93;;;21.83;;
813;SDS011;389;48.710;9.392;2022-07-29T04:46:38;33.47;;;23.90;;
813;SDS011;389;48.710;9.392;2022-07-29T04:49:03;33.60;;;23.77;;
813;SDS011;389;48.710;9.392;2022-07-29T04:51:29;32.37;;;24.13;;
813;SDS011;389;48.710;9.392;2022-07-29T04:53:55;30.63;;;23.07;;
813;SDS011;389;48.710;9.392;2022-07-29T04:56:23;29.83;;;23.07;;
813;SDS011;389;48.710;9.392;2022-07-29T04:58:57;29.10;;;22.20;;
813;SDS011;389;48.710;9.392;2022-07-29T05:01:22;27.80;;;21.87;;
813;SDS011;389;48.710;9.392;2022-07-29T05:03:48;29.43;;;21.80;;
813;SDS011;389;48.710;9.392;2022-07-29T05:06:13;27.60;;;21.40;;
813;SDS011;389;48.710;9.392;2022-07-29T05:08:39;31.53;;;21.13;;
813;SDS011;389;48.710;9.392;2022-07-29T05:11:04;25.37;;;20.33;;
813;SDS011;389;48.710;9.392;2022-07-29T05:13:30;30.77;;;21.20;;
813;SDS011;389;48.710;9.392;2022-07-29T05:15:56;24.50;;;19.80;;
813;SDS011;389;48.710;9.392;2022-07-29T05:18:23;21.00;;;18.10;;
813;SDS011;389;48.710;9.392;2022-07-29T05:20:49;19.97;;;16.90;;
813;SDS011;389;48.710;9.392;2022-07-29T05:23:15;17.73;;;15.93;;
813;SDS011;389;48.710;9.392;2022-07-29T05:25:40;16.50;;;14.90;;
813;SDS011;389;48.710;9.392;2022-07-29T05:28:06;16.07;;;14.40;;
813;SDS011;389;48.710;9.392;2022-07-29T05:30:32;15.83;;;14.23;;
813;SDS011;389;48.710;9.392;2022-07-29T05:32:57;14.50;;;13.10;;
813;SDS011;389;48.710;9.392;2022-07-29T05:35:23;14.17;;;12.70;;
813;SDS011;389;48.710;9.392;2022-07-29T05:37:48;12.60;;;11.40;;
813;SDS011;389;48.710;9.392;2022-07-29T05:40:14;12.57;;;11.23;;
813;SDS011;389;48.710;9.392;2022-07-29T05:42:39;10.80;;;9.70;;
813;SDS011;389;48.710;9.392;2022-07-29T05:45:05;10.00;;;9.20;;
813;SDS011;389;48.710;9.392;2022-07-29T05:47:31;12.17;;;9.20;;
813;SDS011;389;48.710;9.392;2022-07-29T05:49:56;9.80;;;9.00;;
813;SDS011;389;48.710;9.392;2022-07-29T05:52:22;10.00;;;9.10;;
813;SDS011;389;48.710;9.392;2022-07-29T05:54:48;9.77;;;8.87;;
813;SDS011;389;48.710;9.392;2022-07-29T05:57:17;9.90;;;9.00;;
813;SDS011;389;48.710;9.392;2022-07-29T05:59:43;10.40;;;9.60;;
813;SDS011;389;48.710;9.392;2022-07-29T06:02:22;11.17;;;9.40;;
813;SDS011;389;48.710;9.392;2022-07-29T06:04:48;9.97;;;9.07;;
813;SDS011;389;48.710;9.392;2022-07-29T06:07:14;9.77;;;8.97;;
813;SDS011;389;48.710;9.392;2022-07-29T06:09:41;9.53;;;8.60;;
813;SDS011;389;48.710;9.392;2022-07-29T06:12:07;10.10;;;8.13;;
813;SDS011;389;48.710;9.392;2022-07-29T06:14:33;10.00;;;9.00;;
813;SDS011;389;48.710;9.392;2022-07-29T06:16:58;9.57;;;8.67;;
813;SDS011;389;48.710;9.392;2022-07-29T06:19:28;8.90;;;8.10;;
813;SDS011;389;48.710;9.392;2022-07-29T06:21:54;9.30;;;8.50;;
813;SDS011;389;48.710;9.392;2022-07-29T06:24:19;8.87;;;8.00;;
813;SDS011;389;48.710;9.392;2022-07-29T06:26:45;9.80;;;8.20;;
813;SDS011;389;48.710;9.392;2022-07-29T06:29:11;8.97;;;8.07;;
813;SDS011;389;48.710;9.392;2022-07-29T06:31:36;9.33;;;8.43;;
813;SDS011;389;48.710;9.392;2022-07-29T06:34:03;9.77;;;8.87;;
813;SDS011;389;48.710;9.392;2022-07-29T06:36:28;9.37;;;8.37;;
813;SDS011;389;48.710;9.392;2022-07-29T06:38:54;8.43;;;7.57;;
813;SDS011;389;48.710;9.392;2022-07-29T06:43:47;9.30;;;8.03;;
813;SDS011;389;48.710;9.392;2022-07-29T06:46:14;11.30;;;8.37;;
813;SDS011;389;48.710;9.392;2022-07-29T06:48:42;7.93;;;7.23;;
813;SDS011;389;48.710;9.392;2022-07-29T06:51:09;7.67;;;6.97;;
813;SDS011;389;48.710;9.392;2022-07-29T06:53:36;8.40;;;7.60;;
813;SDS011;389;48.710;9.392;2022-07-29T06:56:02;8.60;;;7.80;;
813;SDS011;389;48.710;9.392;2022-07-29T06:58:29;8.57;;;7.73;;
813;SDS011;389;48.710;9.392;2022-07-29T07:00:56;8.17;;;7.47;;
813;SDS011;389;48.710;9.392;2022-07-29T07:03:23;8.27;;;7.57;;
813;SDS011;389;48.710;9.392;2022-07-29T07:05:49;8.00;;;7.30;;
813;SDS011;389;48.710;9.392;2022-07-29T07:08:15;8.47;;;7.67;;
813;SDS011;389;48.710;9.392;2022-07-29T07:10:44;7.80;;;7.07;;
813;SDS011;389;48.710;9.392;2022-07-29T07:13:10;7.30;;;6.60;;
813;SDS011;389;48.710;9.392;2022-07-29T07:15:36;6.63;;;6.03;;
813;SDS011;389;48.710;9.392;2022-07-29T07:18:03;6.63;;;6.03;;
813;SDS011;389;48.710;9.392;2022-07-29T07:20:30;6.83;;;6.30;;
813;SDS011;389;48.710;9.392;2022-07-29T07:22:57;7.63;;;6.40;;
813;SDS011;389;48.710;9.392;2022-07-29T07:25:22;8.00;;;7.30;;
813;SDS011;389;48.710;9.392;2022-07-29T07:27:48;7.60;;;7.00;;
813;SDS011;389;48.710;9.392;2022-07-29T07:30:13;7.60;;;7.00;;
813;SDS011;389;48.710;9.392;2022-07-29T07:32:39;7.40;;;6.80;;
813;SDS011;389;48.710;9.392;2022-07-29T07:35:05;6.73;;;6.03;;
813;SDS011;389;48.710;9.392;2022-07-29T07:37:32;6.60;;;6.00;;
813;SDS011;389;48.710;9.392;2022-07-29T07:39:58;6.70;;;6.10;;
813;SDS011;389;48.710;9.392;2022-07-29T07:42:23;8.77;;;6.40;;
813;SDS011;389;48.710;9.392;2022-07-29T07:44:49;6.47;;;5.40;;
813;SDS011;389;48.710;9.392;2022-07-29T07:47:15;6.67;;;6.00;;
813;SDS011;389;48.710;9.392;2022-07-29T07:49:44;6.30;;;5.80;;
813;SDS011;389;48.710;9.392;2022-07-29T07:52:15;9.27;;;6.10;;
813;SDS011;389;48.710;9.392;2022-07-29T07:54:41;6.37;;;5.67;;
813;SDS011;389;48.710;9.392;2022-07-29T07:57:08;6.17;;;5.67;;
813;SDS011;389;48.710;9.392;2022-07-29T07:59:33;5.90;;;5.30;;
813;SDS011;389;48.710;9.392;2022-07-29T08:01:59;9.83;;;5.63;;
813;SDS011;389;48.710;9.392;2022-07-29T08:04:26;6.93;;;5.83;;
813;SDS011;389;48.710;9.392;2022-07-29T08:06:51;6.77;;;6.17;;
813;SDS011;389;48.710;9.392;2022-07-29T08:09:19;6.43;;;5.80;;
813;SDS011;389;48.710;9.392;2022-07-29T08:11:45;6.63;;;6.10;;
813;SDS011;389;48.710;9.392;2022-07-29T08:14:11;6.90;;;6.40;;
813;SDS011;389;48.710;9.392;2022-07-29T08:16:36;6.60;;;6.10;;
813;SDS011;389;48.710;9.392;2022-07-29T08:19:02;6.60;;;6.00;;
813;SDS011;389;48.710;9.392;2022-07-29T08:21:28;6.57;;;6.00;;
813;SDS011;389;48.710;9.392;2022-07-29T08:23:53;6.60;;;5.90;;
813;SDS011;389;48.710;9.392;2022-07-29T08:26:40;6.40;;;5.77;;
813;SDS011;389;48.710;9.392;2022-07-29T08:29:06;7.10;;;6.47;;
813;SDS011;389;48.710;9.392;2022-07-29T08:31:31;7.40;;;6.80;;
813;SDS011;389;48.710;9.392;2022-07-29T08:33:57;7.40;;;6.70;;
813;SDS011;389;48.710;9.392;2022-07-29T08:36:24;8.00;;;7.30;;
813;SDS011;389;48.710;9.392;2022-07-29T08:38:50;7.50;;;6.80;;
813;SDS011;389;48.710;9.392;2022-07-29T08:41:17;7.10;;;6.37;;
813;SDS011;389;48.710;9.392;2022-07-29T08:43:44;7.47;;;6.77;;
813;SDS011;389;48.710;9.392;2022-07-29T08:46:10;6.87;;;6.27;;
813;SDS011;389;48.710;9.392;2022-07-29T08:48:35;7.30;;;6.63;;
813;SDS011;389;48.710;9.392;2022-07-29T08:51:01;7.30;;;6.70;;
813;SDS011;389;48.710;9.392;2022-07-29T08:53:27;6.57;;;6.03;;
813;SDS011;389;48.710;9.392;2022-07-29T08:55:54;7.10;;;6.50;;
813;SDS011;389;48.710;9.392;2022-07-29T08:58:21;7.53;;;6.77;;
813;SDS011;389;48.710;9.392;2022-07-29T09:00:50;8.20;;;7.13;;
813;SDS011;389;48.710;9.392;2022-07-29T09:03:18;7.50;;;6.90;;
813;SDS011;389;48.710;9.392;2022-07-29T09:06:13;8.53;;;7.03;;
813;SDS011;389;48.710;9.392;2022-07-29T09:08:39;7.43;;;6.80;;
813;SDS011;389;48.710;9.392;2022-07-29T09:11:06;7.87;;;7.13;;
813;SDS011;389;48.710;9.392;2022-07-29T09:13:32;7.33;;;6.73;;
813;SDS011;389;48.710;9.392;2022-07-29T09:15:58;7.97;;;7.17;;
813;SDS011;389;48.710;9.392;2022-07-29T09:18:40;8.70;;;7.90;;
813;SDS011;389;48.710;9.392;2022-07-29T09:21:07;7.57;;;6.43;;
813;SDS011;389;48.710;9.392;2022-07-29T09:24:06;7.47;;;6.87;;
813;SDS011;389;48.710;9.392;2022-07-29T09:26:32;7.10;;;6.50;;
813;SDS011;389;48.710;9.392;2022-07-29T09:29:00;7.50;;;6.87;;
813;SDS011;389;48.710;9.392;2022-07-29T09:31:35;7.73;;;7.10;;
813;SDS011;389;48.710;9.392;2022-07-29T09:34:02;8.03;;;7.33;;
813;SDS011;389;48.710;9.392;2022-07-29T09:36:29;7.60;;;7.00;;
813;SDS011;389;48.710;9.392;2022-07-29T09:38:59;7.67;;;6.97;;
813;SDS011;389;48.710;9.392;2022-07-29T09:41:25;7.57;;;6.87;;
813;SDS011;389;48.710;9.392;2022-07-29T09:43:55;7.80;;;6.73;;
813;SDS011;389;48.710;9.392;2022-07-29T09:46:24;9.63;;;6.87;;
813;SDS011;389;48.710;9.392;2022-07-29T09:49:09;7.87;;;7.07;;
813;SDS011;389;48.710;9.392;2022-07-29T09:51:37;7.90;;;7.10;;
813;SDS011;389;48.710;9.392;2022-07-29T09:54:22;7.80;;;7.10;;
813;SDS011;389;48.710;9.392;2022-07-29T09:56:49;7.50;;;6.90;;
813;SDS011;389;48.710;9.392;2022-07-29T09:59:15;7.57;;;6.70;;
813;SDS011;389;48.710;9.392;2022-07-29T10:01:41;7.80;;;7.10;;
813;SDS011;389;48.710;9.392;2022-07-29T10:04:07;7.53;;;6.83;;
813;SDS011;389;48.710;9.392;2022-07-29T10:06:32;9.43;;;8.63;;
813;SDS011;389;48.710;9.392;2022-07-29T10:09:08;7.77;;;6.97;;
813;SDS011;389;48.710;9.392;2022-07-29T10:11:37;7.67;;;7.07;;
813;SDS011;389;48.710;9.392;2022-07-29T10:14:02;8.00;;;7.27;;
813;SDS011;389;48.710;9.392;2022-07-29T10:16:29;8.80;;;7.87;;
813;SDS011;389;48.710;9.392;2022-07-29T10:18:58;7.87;;;7.27;;
813;SDS011;389;48.710;9.392;2022-07-29T10:21:24;8.60;;;7.90;;
813;SDS011;389;48.710;9.392;2022-07-29T10:23:51;8.13;;;7.33;;
813;SDS011;389;48.710;9.392;2022-07-29T10:26:17;10.07;;;7.50;;
813;SDS011;389;48.710;9.392;2022-07-29T10:28:44;7.47;;;6.70;;
813;SDS011;389;48.710;9.392;2022-07-29T10:34:13;8.37;;;7.77;;
813;SDS011;389;48.710;9.392;2022-07-29T10:43:30;8.40;;;7.60;;
813;SDS011;389;48.710;9.392;2022-07-29T10:46:01;8.63;;;7.67;;
813;SDS011;389;48.710;9.392;2022-07-29T10:48:27;7.87;;;7.27;;
813;SDS011;389;48.710;9.392;2022-07-29T10:50:58;8.30;;;7.60;;
813;SDS011;389;48.710;9.392;2022-07-29T10:56:27;8.70;;;8.00;;
813;SDS011;389;48.710;9.392;2022-07-29T10:59:36;8.40;;;7.60;;
813;SDS011;389;48.710;9.392;2022-07-29T11:01:44;7.97;;;7.37;;
813;SDS011;389;48.710;9.392;2022-07-29T11:04:10;8.80;;;7.90;;
813;SDS011;389;48.710;9.392;2022-07-29T11:09:30;7.53;;;6.60;;
813;SDS011;389;48.710;9.392;2022-07-29T11:11:56;7.23;;;6.73;;
813;SDS011;389;48.710;9.392;2022-07-29T11:17:27;6.93;;;6.50;;
813;SDS011;389;48.710;9.392;2022-07-29T11:20:29;7.60;;;6.90;;
813;SDS011;389;48.710;9.392;2022-07-29T11:22:57;8.13;;;7.10;;
813;SDS011;389;48.710;9.392;2022-07-29T11:25:23;7.70;;;7.03;;
813;SDS011;389;48.710;9.392;2022-07-29T11:27:48;8.50;;;7.83;;
813;SDS011;389;48.710;9.392;2022-07-29T11:30:14;9.23;;;8.20;;
813;SDS011;389;48.710;9.392;2022-07-29T11:32:41;8.40;;;7.70;;
813;SDS011;389;48.710;9.392;2022-07-29T11:37:37;5.43;;;4.93;;
813;SDS011;389;48.710;9.392;2022-07-29T11:47:31;12.73;;;2.60;;
813;SDS011;389;48.710;9.392;2022-07-29T11:49:59;4.97;;;2.33;;
813;SDS011;389;48.710;9.392;2022-07-29T11:52:44;3.70;;;2.90;;
813;SDS011;389;48.710;9.392;2022-07-29T11:55:16;2.63;;;2.50;;
813;SDS011;389;48.710;9.392;2022-07-29T11:57:50;3.90;;;3.50;;
813;SDS011;389;48.710;9.392;2022-07-29T12:00:26;3.80;;;3.50;;
813;SDS011;389;48.710;9.392;2022-07-29T12:02:59;4.10;;;3.70;;
813;SDS011;389;48.710;9.392;2022-07-29T12:08:06;5.40;;;4.90;;
813;SDS011;389;48.710;9.392;2022-07-29T12:10:38;6.33;;;5.00;;
813;SDS011;389;48.710;9.392;2022-07-29T12:13:05;6.67;;;4.53;;
813;SDS011;389;48.710;9.392;2022-07-29T12:15:31;8.07;;;5.57;;
813;SDS011;389;48.710;9.392;2022-07-29T12:17:57;6.80;;;5.80;;
813;SDS011;389;48.710;9.392;2022-07-29T12:20:27;8.80;;;5.30;;
813;SDS011;389;48.710;9.392;2022-07-29T12:22:54;6.20;;;5.60;;
813;SDS011;389;48.710;9.392;2022-07-29T12:25:21;6.93;;;6.23;;
813;SDS011;389;48.710;9.392;2022-07-29T12:27:57;7.23;;;5.93;;
813;SDS011;389;48.710;9.392;2022-07-29T12:30:45;7.77;;;5.63;;
813;SDS011;389;48.710;9.392;2022-07-29T12:33:22;9.67;;;6.93;;
813;SDS011;389;48.710;9.392;2022-07-29T12:35:54;8.67;;;6.30;;
813;SDS011;389;48.710;9.392;2022-07-29T12:38:23;7.60;;;6.33;;
813;SDS011;389;48.710;9.392;2022-07-29T12:40:49;9.43;;;6.37;;
813;SDS011;389;48.710;9.392;2022-07-29T12:43:17;7.80;;;5.13;;
813;SDS011;389;48.710;9.392;2022-07-29T12:45:48;5.17;;;4.77;;
813;SDS011;389;48.710;9.392;2022-07-29T12:48:16;5.60;;;4.87;;
813;SDS011;389;48.710;9.392;2022-07-29T12:50:52;6.43;;;5.60;;
813;SDS011;389;48.710;9.392;2022-07-29T12:53:18;6.47;;;5.80;;
813;SDS011;389;48.710;9.392;2022-07-29T12:55:45;9.77;;;6.97;;
813;SDS011;389;48.710;9.392;2022-07-29T12:58:52;9.97;;;7.60;;
813;SDS011;389;48.710;9.392;2022-07-29T13:01:15;7.50;;;6.70;;
813;SDS011;389;48.710;9.392;2022-07-29T13:03:52;6.90;;;6.20;;
813;SDS011;389;48.710;9.392;2022-07-29T13:11:38;7.37;;;6.10;;
813;SDS011;389;48.710;9.392;2022-07-29T13:17:06;8.77;;;6.80;;
813;SDS011;389;48.710;9.392;2022-07-29T13:22:22;8.00;;;6.57;;
813;SDS011;389;48.710;9.392;2022-07-29T13:24:53;7.37;;;6.63;;
813;SDS011;389;48.710;9.392;2022-07-29T13:27:27;10.10;;;7.87;;
813;SDS011;389;48.710;9.392;2022-07-29T13:29:55;7.90;;;7.10;;
813;SDS011;389;48.710;9.392;2022-07-29T13:32:22;8.00;;;7.17;;
813;SDS011;389;48.710;9.392;2022-07-29T13:34:50;8.27;;;7.43;;
813;SDS011;389;48.710;9.392;2022-07-29T13:37:17;8.40;;;6.73;;
813;SDS011;389;48.710;9.392;2022-07-29T13:39:43;8.97;;;8.07;;
813;SDS011;389;48.710;9.392;2022-07-29T13:42:09;9.43;;;8.00;;
813;SDS011;389;48.710;9.392;2022-07-29T13:44:37;9.23;;;7.40;;
813;SDS011;389;48.710;9.392;2022-07-29T13:47:04;8.10;;;7.30;;
813;SDS011;389;48.710;9.392;2022-07-29T13:49:31;7.43;;;6.73;;
813;SDS011;389;48.710;9.392;2022-07-29T13:51:56;8.33;;;6.93;;
813;SDS011;389;48.710;9.392;2022-07-29T13:54:22;8.10;;;7.30;;
813;SDS011;389;48.710;9.392;2022-07-29T13:56:49;9.33;;;6.70;;
813;SDS011;389;48.710;9.392;2022-07-29T13:59:15;9.60;;;6.63;;
813;SDS011;389;48.710;9.392;2022-07-29T14:01:44;9.20;;;7.17;;
813;SDS011;389;48.710;9.392;2022-07-29T14:04:10;8.30;;;7.10;;
813;SDS011;389;48.710;9.392;2022-07-29T14:06:36;6.80;;;6.20;;
813;SDS011;389;48.710;9.392;2022-07-29T14:09:02;6.40;;;5.80;;
813;SDS011;389;48.710;9.392;2022-07-29T14:11:31;7.43;;;6.53;;
813;SDS011;389;48.710;9.392;2022-07-29T14:13:57;7.30;;;6.70;;
813;SDS011;389;48.710;9.392;2022-07-29T14:16:23;6.90;;;6.20;;
813;SDS011;389;48.710;9.392;2022-07-29T14:18:48;8.80;;;6.77;;
813;SDS011;389;48.710;9.392;2022-07-29T14:21:14;7.57;;;6.87;;
813;SDS011;389;48.710;9.392;2022-07-29T14:23:40;8.13;;;6.70;;
813;SDS011;389;48.710;9.392;2022-07-29T14:26:05;8.13;;;7.43;;
813;SDS011;389;48.710;9.392;2022-07-29T14:28:31;9.17;;;7.03;;
813;SDS011;389;48.710;9.392;2022-07-29T14:30:57;7.93;;;7.20;;
813;SDS011;389;48.710;9.392;2022-07-29T14:33:22;7.40;;;6.67;;
813;SDS011;389;48.710;9.392;2022-07-29T14:35:48;8.60;;;7.70;;
813;SDS011;389;48.710;9.392;2022-07-29T14:38:14;8.63;;;7.70;;
813;SDS011;389;48.710;9.392;2022-07-29T14:40:39;7.77;;;6.50;;
813;SDS011;389;48.710;9.392;2022-07-29T14:43:05;8.53;;;7.73;;
813;SDS011;389;48.710;9.392;2022-07-29T14:45:31;8.80;;;7.40;;
813;SDS011;389;48.710;9.392;2022-07-29T14:47:57;7.67;;;7.07;;
813;SDS011;389;48.710;9.392;2022-07-29T14:50:24;8.40;;;7.53;;
813;SDS011;389;48.710;9.392;2022-07-29T14:52:51;7.60;;;6.70;;
813;SDS011;389;48.710;9.392;2022-07-29T14:55:20;8.00;;;7.30;;
813;SDS011;389;48.710;9.392;2022-07-29T14:57:46;8.20;;;7.50;;
813;SDS011;389;48.710;9.392;2022-07-29T15:00:12;8.90;;;7.70;;
813;SDS011;389;48.710;9.392;2022-07-29T15:02:50;8.80;;;8.00;;
813;SDS011;389;48.710;9.392;2022-07-29T15:05:50;8.30;;;7.47;;
813;SDS011;389;48.710;9.392;2022-07-29T15:08:16;8.70;;;7.90;;
813;SDS011;389;48.710;9.392;2022-07-29T15:10:41;8.33;;;7.50;;
813;SDS011;389;48.710;9.392;2022-07-29T15:13:07;10.47;;;9.47;;
813;SDS011;389;48.710;9.392;2022-07-29T15:15:33;8.90;;;8.10;;
813;SDS011;389;48.710;9.392;2022-07-29T15:17:58;10.60;;;8.20;;
813;SDS011;389;48.710;9.392;2022-07-29T15:20:24;9.73;;;8.83;;
813;SDS011;389;48.710;9.392;2022-07-29T15:22:51;8.67;;;7.77;;
813;SDS011;389;48.710;9.392;2022-07-29T15:25:17;9.30;;;8.50;;
813;SDS011;389;48.710;9.392;2022-07-29T15:27:43;8.83;;;8.03;;
813;SDS011;389;48.710;9.392;2022-07-29T15:30:09;9.30;;;8.50;;
813;SDS011;389;48.710;9.392;2022-07-29T15:32:35;7.77;;;7.13;;
813;SDS011;389;48.710;9.392;2022-07-29T15:35:01;10.70;;;8.33;;
813;SDS011;389;48.710;9.392;2022-07-29T15:37:27;8.93;;;7.97;;
813;SDS011;389;48.710;9.392;2022-07-29T15:39:53;9.20;;;7.90;;
813;SDS011;389;48.710;9.392;2022-07-29T15:42:19;9.90;;;7.47;;
813;SDS011;389;48.710;9.392;2022-07-29T15:44:45;8.10;;;7.40;;
813;SDS011;389;48.710;9.392;2022-07-29T15:47:10;8.87;;;6.47;;
813;SDS011;389;48.710;9.392;2022-07-29T15:49:39;7.47;;;6.77;;
813;SDS011;389;48.710;9.392;2022-07-29T15:52:07;7.20;;;6.60;;
813;SDS011;389;48.710;9.392;2022-07-29T15:54:35;7.67;;;6.97;;
813;SDS011;389;48.710;9.392;2022-07-29T15:57:02;15.80;;;8.97;;
813;SDS011;389;48.710;9.392;2022-07-29T15:59:29;11.37;;;8.83;;
813;SDS011;389;48.710;9.392;2022-07-29T16:01:56;9.90;;;8.40;;
813;SDS011;389;48.710;9.392;2022-07-29T16:04:22;8.17;;;7.47;;
813;SDS011;389;48.710;9.392;2022-07-29T16:06:48;8.93;;;8.13;;
813;SDS011;389;48.710;9.392;2022-07-29T16:09:14;11.13;;;8.03;;
813;SDS011;389;48.710;9.392;2022-07-29T16:11:41;8.30;;;7.50;;
813;SDS011;389;48.710;9.392;2022-07-29T16:14:07;8.63;;;7.80;;
813;SDS011;389;48.710;9.392;2022-07-29T16:16:35;7.70;;;7.00;;
813;SDS011;389;48.710;9.392;2022-07-29T16:19:00;8.83;;;8.07;;
813;SDS011;389;48.710;9.392;2022-07-29T16:21:26;8.20;;;7.40;;
813;SDS011;389;48.710;9.392;2022-07-29T16:23:52;8.50;;;7.80;;
813;SDS011;389;48.710;9.392;2022-07-29T16:26:18;9.83;;;8.13;;
813;SDS011;389;48.710;9.392;2022-07-29T16:28:43;9.90;;;9.00;;
813;SDS011;389;48.710;9.392;2022-07-29T16:31:09;8.60;;;7.73;;
813;SDS011;389;48.710;9.392;2022-07-29T16:33:34;8.37;;;7.57;;